Time;durP1;ratioP1;P1;durP2;ratioP2;P2;SDS_P1;SDS_P2;PMS_P1;PMS_P2;Temp;Humidity;BMP_temperature;BMP_pressure;BME280_temperature;BME280_humidity;BME280_pressure;Samples;Min_cycle;Max_cycle;Signal;HPM_P1;HPM_P2
2022/07/18 00:02:19;;;;;;;5.25;3.70;;;20.30;67.10;;;;;;4969480;28;20038;-69
2022/07/18 00:04:45;;;;;;;4.55;3.17;;;20.30;67.00;;;;;;4954667;28;20118;-69
2022/07/18 00:07:10;;;;;;;5.43;3.30;;;20.30;67.00;;;;;;4954351;28;20027;-69
2022/07/18 00:09:37;;;;;;;6.85;3.28;;;20.20;66.90;;;;;;4966677;28;20644;-69
2022/07/18 00:12:04;;;;;;;7.57;4.00;;;20.30;67.00;;;;;;4954503;28;20027;-69
2022/07/18 00:14:30;;;;;;;7.78;3.92;;;20.20;66.90;;;;;;4973231;28;20481;-69
2022/07/18 00:16:55;;;;;;;7.00;3.33;;;20.20;66.90;;;;;;4973365;28;20101;-69
2022/07/18 00:19:21;;;;;;;8.30;4.28;;;20.30;67.20;;;;;;4971412;28;20026;-69
2022/07/18 00:21:47;;;;;;;5.38;2.80;;;20.30;67.10;;;;;;4972772;28;20103;-69
2022/07/18 00:24:13;;;;;;;4.45;3.42;;;20.30;67.00;;;;;;4972916;28;20038;-69
2022/07/18 00:26:39;;;;;;;6.03;3.95;;;20.30;67.10;;;;;;4974859;28;20015;-69
2022/07/18 00:29:04;;;;;;;6.25;3.38;;;20.30;67.20;;;;;;4975223;28;20054;-68
2022/07/18 00:31:30;;;;;;;6.30;3.42;;;20.30;67.30;;;;;;4973424;28;20069;-68
2022/07/18 00:33:55;;;;;;;6.13;3.38;;;20.30;67.20;;;;;;4985903;28;20050;-69
2022/07/18 00:36:21;;;;;;;6.88;3.20;;;20.30;67.30;;;;;;4992265;28;20105;-69
2022/07/18 00:38:48;;;;;;;5.78;2.80;;;20.30;67.30;;;;;;4992145;28;20045;-69
2022/07/18 00:41:17;;;;;;;7.88;3.78;;;20.30;67.30;;;;;;4992235;28;20022;-69
2022/07/18 00:43:43;;;;;;;5.35;3.22;;;20.30;67.40;;;;;;4992198;28;20034;-69
2022/07/18 00:46:11;;;;;;;9.05;3.40;;;20.30;67.40;;;;;;4992058;28;20500;-69
2022/07/18 00:48:37;;;;;;;4.70;2.85;;;20.30;67.40;;;;;;4991191;28;20474;-69
2022/07/18 00:51:03;;;;;;;6.28;3.25;;;20.30;67.40;;;;;;4992096;28;20030;-69
2022/07/18 00:53:29;;;;;;;5.60;3.28;;;20.30;67.30;;;;;;4992093;28;20037;-69
2022/07/18 00:55:55;;;;;;;4.65;3.13;;;20.30;67.10;;;;;;4992366;28;20022;-69
2022/07/18 00:58:21;;;;;;;7.22;3.33;;;20.30;67.30;;;;;;4991752;28;20034;-69
2022/07/18 01:03:31;;;;;;;4.13;2.90;;;20.30;67.20;;;;;;4991744;28;20042;-69
2022/07/18 01:05:58;;;;;;;10.02;3.05;;;20.30;67.30;;;;;;4992570;28;20050;-69
2022/07/18 01:08:24;;;;;;;6.03;2.58;;;20.20;67.40;;;;;;4992021;28;20463;-69
2022/07/18 01:10:51;;;;;;;4.07;2.70;;;20.30;67.60;;;;;;4990714;28;20114;-68
2022/07/18 01:13:17;;;;;;;5.53;3.00;;;20.20;67.50;;;;;;4991744;28;20044;-69
2022/07/18 01:15:43;;;;;;;3.90;2.65;;;20.20;67.60;;;;;;4992340;28;20030;-69
2022/07/18 01:18:09;;;;;;;5.60;2.97;;;20.30;67.70;;;;;;4992089;28;20026;-69
2022/07/18 01:20:35;;;;;;;4.07;2.55;;;20.20;67.70;;;;;;4992108;28;20113;-69
2022/07/18 01:23:00;;;;;;;4.07;2.67;;;20.20;67.80;;;;;;4991680;28;20600;-69
2022/07/18 01:25:27;;;;;;;3.78;2.63;;;20.20;67.80;;;;;;5002923;28;20111;-69
2022/07/18 01:27:53;;;;;;;6.53;2.72;;;20.20;68.00;;;;;;5005719;28;20523;-69
2022/07/18 01:30:18;;;;;;;4.03;2.15;;;20.20;68.10;;;;;;4991710;28;20110;-70
2022/07/18 01:32:44;;;;;;;6.50;2.65;;;20.20;67.90;;;;;;4990559;28;20137;-69
2022/07/18 01:35:10;;;;;;;3.78;2.72;;;20.20;68.50;;;;;;4992101;28;20030;-69
2022/07/18 01:37:36;;;;;;;4.35;2.78;;;20.20;68.10;;;;;;4991932;28;20122;-70
2022/07/18 01:40:06;;;;;;;4.22;2.53;;;20.20;68.30;;;;;;4992169;28;20054;-69
2022/07/18 01:42:31;;;;;;;6.43;2.30;;;20.20;68.40;;;;;;4991443;28;20548;-69
2022/07/18 01:44:57;;;;;;;7.43;3.00;;;20.10;68.60;;;;;;4993980;28;20034;-69
2022/07/18 01:47:23;;;;;;;5.55;2.58;;;20.10;68.60;;;;;;4994916;28;20033;-69
2022/07/18 01:49:48;;;;;;;5.15;2.50;;;20.10;68.70;;;;;;4995468;28;20031;-69
2022/07/18 01:52:14;;;;;;;3.85;2.30;;;20.10;68.80;;;;;;4977441;28;20444;-68
2022/07/18 01:54:39;;;;;;;5.05;2.20;;;20.00;69.00;;;;;;4978162;28;20070;-68
2022/07/18 01:57:06;;;;;;;4.88;2.67;;;20.00;69.00;;;;;;4974921;28;20019;-68
2022/07/18 01:59:32;;;;;;;4.45;2.85;;;20.00;69.10;;;;;;4975745;28;20065;-69
2022/07/18 02:01:58;;;;;;;5.22;2.80;;;19.90;69.20;;;;;;4984157;28;20174;-68
2022/07/18 02:04:59;;;;;;;5.28;2.78;;;19.90;69.40;;;;;;4995021;28;20037;-69
2022/07/18 02:07:11;;;;;;;5.85;2.65;;;19.90;69.10;;;;;;4994409;28;20145;-69
2022/07/18 02:09:36;;;;;;;8.25;2.63;;;19.80;69.30;;;;;;4988639;28;20493;-69
2022/07/18 02:12:03;;;;;;;4.47;2.65;;;19.80;69.60;;;;;;4983192;28;20065;-69
2022/07/18 02:14:29;;;;;;;4.40;2.75;;;19.70;69.90;;;;;;4994629;28;20238;-69
2022/07/18 02:16:54;;;;;;;5.60;2.60;;;19.60;70.10;;;;;;4994815;28;20529;-69
2022/07/18 02:19:20;;;;;;;6.82;2.85;;;19.50;70.30;;;;;;4994725;28;20030;-69
2022/07/18 02:21:45;;;;;;;4.07;2.70;;;19.50;70.40;;;;;;4994474;28;20110;-69
2022/07/18 02:24:11;;;;;;;6.35;2.70;;;19.50;70.60;;;;;;4994536;28;20038;-69
2022/07/18 02:26:37;;;;;;;5.10;2.42;;;19.40;70.80;;;;;;4994413;28;20029;-69
2022/07/18 02:29:03;;;;;;;5.65;2.75;;;19.30;71.00;;;;;;4994735;28;20042;-69
2022/07/18 02:31:28;;;;;;;6.78;2.78;;;19.30;71.30;;;;;;4994394;28;20029;-69
2022/07/18 02:33:54;;;;;;;4.40;2.35;;;19.20;71.60;;;;;;4994567;28;20043;-69
2022/07/18 02:36:20;;;;;;;5.50;2.90;;;19.20;71.80;;;;;;4994467;28;20065;-69
2022/07/18 02:38:45;;;;;;;4.95;3.10;;;19.10;72.10;;;;;;4994578;28;20073;-69
2022/07/18 02:41:11;;;;;;;5.22;2.95;;;19.00;72.20;;;;;;4994109;28;20022;-69
2022/07/18 02:43:36;;;;;;;3.88;2.40;;;19.00;72.30;;;;;;4994199;28;20732;-69
2022/07/18 02:46:03;;;;;;;5.72;2.75;;;19.00;72.50;;;;;;4994092;28;20057;-70
2022/07/18 02:48:28;;;;;;;4.30;2.90;;;19.00;72.50;;;;;;4994425;28;20061;-69
2022/07/18 02:50:54;;;;;;;5.82;3.30;;;19.00;72.80;;;;;;4977820;28;20046;-70
2022/07/18 02:53:23;;;;;;;5.53;2.83;;;19.00;73.10;;;;;;4995881;28;20113;-68
2022/07/18 02:55:51;;;;;;;6.22;2.90;;;18.90;73.00;;;;;;4993878;28;20038;-69
2022/07/18 02:58:18;;;;;;;6.13;2.88;;;18.90;73.10;;;;;;4994424;28;20065;-69
2022/07/18 03:00:43;;;;;;;8.43;3.22;;;18.90;73.40;;;;;;4993801;28;20037;-69
2022/07/18 03:03:09;;;;;;;4.65;2.50;;;18.90;73.50;;;;;;4976232;28;20034;-68
2022/07/18 03:05:35;;;;;;;5.97;3.00;;;18.90;73.60;;;;;;4974601;28;20430;-68
2022/07/18 03:08:01;;;;;;;4.65;2.60;;;18.80;73.70;;;;;;4973318;28;20030;-69
2022/07/18 03:10:26;;;;;;;6.45;3.00;;;18.80;73.80;;;;;;4975009;28;20065;-68
2022/07/18 03:12:52;;;;;;;4.13;2.60;;;18.90;74.00;;;;;;4993720;28;20509;-69
2022/07/18 03:15:18;;;;;;;6.55;2.90;;;18.80;74.10;;;;;;4993607;28;20038;-69
2022/07/18 03:17:43;;;;;;;3.95;2.60;;;18.80;74.20;;;;;;4993984;28;20069;-69
2022/07/18 03:20:09;;;;;;;7.13;3.47;;;18.80;74.50;;;;;;4993251;28;20030;-68
2022/07/18 03:22:45;;;;;;;4.93;2.90;;;18.70;74.70;;;;;;4992983;28;20133;-68
2022/07/18 03:25:11;;;;;;;5.53;2.95;;;18.60;75.00;;;;;;4976100;28;20122;-68
2022/07/18 03:27:38;;;;;;;4.22;3.08;;;18.60;75.30;;;;;;4993461;28;20034;-68
2022/07/18 03:30:04;;;;;;;5.38;2.78;;;18.50;75.40;;;;;;4993607;28;20042;-68
2022/07/18 03:32:29;;;;;;;4.18;2.88;;;18.50;75.40;;;;;;4992444;28;20130;-68
2022/07/18 03:34:55;;;;;;;4.47;2.60;;;18.50;75.60;;;;;;4992754;28;20104;-69
2022/07/18 03:37:21;;;;;;;6.93;2.67;;;18.50;75.90;;;;;;4992828;28;20085;-71
2022/07/18 03:39:53;;;;;;;6.18;2.80;;;18.50;76.20;;;;;;4993591;28;20382;-71
2022/07/18 03:42:19;;;;;;;7.35;3.20;;;18.50;76.30;;;;;;4993185;28;20080;-70
2022/07/18 03:44:45;;;;;;;5.53;3.13;;;18.50;76.40;;;;;;4993043;28;20037;-69
2022/07/18 03:47:11;;;;;;;5.75;3.00;;;18.50;76.60;;;;;;4993305;28;20106;-69
2022/07/18 03:49:36;;;;;;;5.03;2.58;;;18.50;76.40;;;;;;4993194;28;20121;-69
2022/07/18 03:52:02;;;;;;;4.32;2.97;;;18.50;76.40;;;;;;4993246;28;20110;-68
2022/07/18 03:54:28;;;;;;;5.22;2.40;;;18.60;76.30;;;;;;4993070;28;20138;-69
2022/07/18 03:56:53;;;;;;;5.50;2.90;;;18.50;76.40;;;;;;4993446;28;20533;-69
2022/07/18 03:59:19;;;;;;;3.35;2.53;;;18.60;76.50;;;;;;4992637;28;20088;-68
2022/07/18 04:01:44;;;;;;;3.92;2.38;;;18.60;76.60;;;;;;4993041;28;20388;-68
2022/07/18 04:04:10;;;;;;;6.03;2.78;;;18.60;76.70;;;;;;4992788;28;20600;-68
2022/07/18 04:06:36;;;;;;;5.00;2.95;;;18.60;76.40;;;;;;4992751;28;20038;-68
2022/07/18 04:09:01;;;;;;;3.95;2.47;;;18.70;76.60;;;;;;4992368;28;20038;-68
2022/07/18 04:11:27;;;;;;;5.80;2.42;;;18.70;76.60;;;;;;4992361;28;20034;-69
2022/07/18 04:13:53;;;;;;;6.60;3.22;;;18.80;76.60;;;;;;4993097;28;20049;-69
2022/07/18 04:16:20;;;;;;;4.90;2.65;;;18.80;76.60;;;;;;4992561;28;20033;-69
2022/07/18 04:18:46;;;;;;;4.25;2.67;;;18.80;76.90;;;;;;4992872;28;20041;-69
2022/07/18 04:21:12;;;;;;;5.40;2.95;;;18.80;77.00;;;;;;4992375;28;20100;-70
2022/07/18 04:23:39;;;;;;;4.65;2.95;;;18.80;76.90;;;;;;4992492;28;20243;-69
2022/07/18 04:26:05;;;;;;;5.00;2.88;;;18.90;76.80;;;;;;4991862;28;20473;-69
2022/07/18 04:28:30;;;;;;;4.75;2.55;;;18.90;76.80;;;;;;4975539;28;20120;-69
2022/07/18 04:30:56;;;;;;;5.82;2.75;;;19.00;76.90;;;;;;4988354;28;20065;-69
2022/07/18 04:33:22;;;;;;;5.55;2.60;;;19.00;76.80;;;;;;4965897;28;20049;-69
2022/07/18 04:35:49;;;;;;;5.28;3.25;;;19.00;76.70;;;;;;4972831;28;20037;-69
2022/07/18 04:38:15;;;;;;;5.93;2.47;;;19.10;76.60;;;;;;4972572;28;20061;-68
2022/07/18 04:40:41;;;;;;;6.32;2.85;;;19.10;76.60;;;;;;4972963;28;20027;-69
2022/07/18 04:43:07;;;;;;;6.03;2.42;;;19.10;76.60;;;;;;4972856;28;20043;-68
2022/07/18 04:45:34;;;;;;;4.93;2.72;;;19.10;76.40;;;;;;4971795;28;20026;-68
2022/07/18 04:48:01;;;;;;;6.35;2.60;;;19.10;76.40;;;;;;4972533;28;20035;-68
2022/07/18 04:50:29;;;;;;;6.32;2.75;;;19.10;76.40;;;;;;4972526;28;20202;-69
2022/07/18 04:52:55;;;;;;;5.95;3.00;;;19.20;76.60;;;;;;4972434;28;20402;-70
2022/07/18 04:55:22;;;;;;;5.68;2.20;;;19.20;76.40;;;;;;4972637;28;20030;-71
2022/07/18 04:57:48;;;;;;;5.53;2.65;;;19.20;76.40;;;;;;4971851;28;20062;-68
2022/07/18 05:00:17;;;;;;;6.70;3.17;;;19.20;76.40;;;;;;4972192;28;20031;-68
2022/07/18 05:02:48;;;;;;;4.47;2.38;;;19.20;76.00;;;;;;4971758;28;20098;-68
2022/07/18 05:05:16;;;;;;;12.77;2.97;;;19.30;76.20;;;;;;4972614;28;20042;-69
2022/07/18 05:07:43;;;;;;;5.70;2.63;;;19.30;76.20;;;;;;4969610;28;20023;-69
2022/07/18 05:10:12;;;;;;;4.88;3.00;;;19.40;76.30;;;;;;4963261;28;20027;-69
2022/07/18 05:12:39;;;;;;;5.53;2.75;;;19.40;76.20;;;;;;4972957;28;20035;-69
2022/07/18 05:15:07;;;;;;;5.25;3.00;;;19.40;76.00;;;;;;4974507;28;20027;-69
2022/07/18 05:17:32;;;;;;;5.45;3.17;;;19.50;76.00;;;;;;4982804;28;20027;-68
2022/07/18 05:19:58;;;;;;;4.85;2.80;;;19.50;76.00;;;;;;4986399;28;20488;-69
2022/07/18 05:22:24;;;;;;;4.40;2.40;;;19.50;75.90;;;;;;4978421;28;20069;-70
2022/07/18 05:24:52;;;;;;;5.75;2.88;;;19.60;75.80;;;;;;4976781;28;20057;-70
2022/07/18 05:27:18;;;;;;;4.20;2.60;;;19.60;75.60;;;;;;4976358;28;20059;-69
2022/07/18 05:29:44;;;;;;;3.42;2.30;;;19.70;75.30;;;;;;4976594;28;20031;-69
2022/07/18 05:32:11;;;;;;;5.22;2.50;;;19.80;74.90;;;;;;4975599;28;20041;-69
2022/07/18 05:34:37;;;;;;;4.72;2.47;;;19.80;74.80;;;;;;4982554;28;20046;-70
2022/07/18 05:37:02;;;;;;;4.10;2.35;;;19.90;74.70;;;;;;4988277;28;20072;-69
2022/07/18 05:39:28;;;;;;;5.65;3.22;;;19.90;74.50;;;;;;4991496;28;20029;-68
2022/07/18 05:41:54;;;;;;;6.22;3.05;;;20.00;74.40;;;;;;4995542;28;20054;-70
2022/07/18 05:44:20;;;;;;;6.90;2.92;;;20.00;74.40;;;;;;4977498;28;20084;-70
2022/07/18 05:46:46;;;;;;;6.05;2.45;;;20.10;74.10;;;;;;4995037;28;20030;-69
2022/07/18 05:49:13;;;;;;;3.45;2.60;;;20.10;74.00;;;;;;4977341;28;20102;-70
2022/07/18 05:51:39;;;;;;;6.50;2.50;;;20.20;73.90;;;;;;4991625;28;20046;-70
2022/07/18 05:54:05;;;;;;;5.57;2.42;;;20.30;73.90;;;;;;4994154;28;20027;-69
2022/07/18 05:56:31;;;;;;;4.53;2.28;;;20.30;73.50;;;;;;4994451;28;20034;-69
2022/07/18 05:58:57;;;;;;;5.07;2.72;;;20.40;73.40;;;;;;4994689;28;20026;-69
2022/07/18 06:01:23;;;;;;;4.55;2.75;;;20.40;73.30;;;;;;4994386;28;20023;-71
2022/07/18 06:03:48;;;;;;;3.97;2.40;;;20.50;73.30;;;;;;4994513;28;20401;-70
2022/07/18 06:06:15;;;;;;;4.93;2.30;;;20.50;73.20;;;;;;4994761;28;20038;-69
2022/07/18 06:08:41;;;;;;;4.20;2.63;;;20.50;73.10;;;;;;4994598;28;20030;-71
2022/07/18 06:11:08;;;;;;;5.97;2.40;;;20.60;73.60;;;;;;4990654;28;20528;-70
2022/07/18 06:13:36;;;;;;;5.68;2.63;;;20.60;72.90;;;;;;4994954;28;20045;-71
2022/07/18 06:16:02;;;;;;;4.03;2.30;;;20.70;73.20;;;;;;4994534;28;20031;-70
2022/07/18 06:18:28;;;;;;;4.45;2.35;;;20.80;72.70;;;;;;4992903;28;20503;-70
2022/07/18 06:20:53;;;;;;;6.80;2.83;;;20.80;72.40;;;;;;4993642;28;20037;-70
2022/07/18 06:23:19;;;;;;;4.47;2.25;;;20.90;72.40;;;;;;4994428;28;20468;-69
2022/07/18 06:25:47;;;;;;;7.72;2.50;;;21.00;72.40;;;;;;4995025;28;20041;-70
2022/07/18 06:28:13;;;;;;;5.72;2.50;;;21.00;72.30;;;;;;4994675;28;20027;-70
2022/07/18 06:30:39;;;;;;;5.20;2.50;;;21.10;72.00;;;;;;4993291;28;20023;-70
2022/07/18 06:33:07;;;;;;;5.93;2.38;;;21.20;71.60;;;;;;4994243;28;20050;-71
2022/07/18 06:35:33;;;;;;;3.22;1.90;;;21.30;71.60;;;;;;4994440;28;20494;-70
2022/07/18 06:37:59;;;;;;;4.55;2.47;;;21.30;71.40;;;;;;4994083;28;20117;-70
2022/07/18 06:40:26;;;;;;;6.72;2.88;;;21.40;70.90;;;;;;4993738;28;20113;-70
2022/07/18 06:42:52;;;;;;;5.88;2.00;;;21.40;70.70;;;;;;4994268;28;20045;-70
2022/07/18 06:45:18;;;;;;;4.90;2.53;;;21.50;70.50;;;;;;4991155;28;20179;-71
2022/07/18 06:47:44;;;;;;;3.72;1.92;;;21.50;70.30;;;;;;4990541;28;20026;-71
2022/07/18 06:50:14;;;;;;;3.20;1.83;;;21.60;70.00;;;;;;4994184;28;20092;-71
2022/07/18 06:52:41;;;;;;;3.25;1.88;;;21.70;69.90;;;;;;4994305;28;20065;-71
2022/07/18 06:55:08;;;;;;;4.55;2.13;;;21.70;69.80;;;;;;4994341;28;20050;-71
2022/07/18 06:57:34;;;;;;;5.68;2.30;;;21.80;69.60;;;;;;4994091;28;20044;-71
2022/07/18 07:00:00;;;;;;;4.75;2.33;;;21.80;69.20;;;;;;4993937;28;20553;-71
2022/07/18 07:02:25;;;;;;;3.40;1.75;;;21.90;69.00;;;;;;4994138;28;20125;-70
2022/07/18 07:04:52;;;;;;;3.55;1.85;;;22.00;68.80;;;;;;4993399;28;20087;-70
2022/07/18 07:07:18;;;;;;;6.82;3.15;;;22.10;68.30;;;;;;4991876;28;20069;-71
2022/07/18 07:09:44;;;;;;;3.85;1.83;;;22.10;68.10;;;;;;4993461;28;20030;-71
2022/07/18 07:12:16;;;;;;;6.88;1.85;;;22.10;67.90;;;;;;4993321;28;20156;-70
2022/07/18 07:14:41;;;;;;;6.47;2.00;;;22.20;67.80;;;;;;4992822;28;20831;-70
2022/07/18 07:17:07;;;;;;;6.70;2.22;;;22.30;67.70;;;;;;4989521;28;20034;-70
2022/07/18 07:19:32;;;;;;;8.80;3.22;;;22.30;67.70;;;;;;4991633;28;20025;-70
2022/07/18 07:21:58;;;;;;;3.70;2.13;;;22.40;67.30;;;;;;4975951;28;20469;-70
2022/07/18 07:24:24;;;;;;;4.00;2.10;;;22.40;66.80;;;;;;4993630;28;20034;-69
2022/07/18 07:26:49;;;;;;;5.15;1.88;;;22.40;66.10;;;;;;4993037;28;20034;-70
2022/07/18 07:29:15;;;;;;;3.95;1.67;;;22.40;66.20;;;;;;4993415;28;20037;-70
2022/07/18 07:31:42;;;;;;;4.88;1.80;;;22.50;66.30;;;;;;4993393;28;20041;-70
2022/07/18 07:34:08;;;;;;;9.10;3.63;;;22.50;65.60;;;;;;4993212;28;20129;-69
2022/07/18 07:36:34;;;;;;;6.75;2.80;;;22.50;66.00;;;;;;4994207;28;20027;-69
2022/07/18 07:39:00;;;;;;;5.13;1.85;;;22.60;65.90;;;;;;4997681;28;20426;-69
2022/07/18 07:41:25;;;;;;;5.38;2.65;;;22.70;65.60;;;;;;4994523;28;20026;-69
2022/07/18 07:43:51;;;;;;;3.97;1.98;;;22.70;65.10;;;;;;4993807;28;20034;-69
2022/07/18 07:46:16;;;;;;;3.50;1.80;;;22.80;65.00;;;;;;4993900;28;20032;-69
2022/07/18 07:48:43;;;;;;;3.80;2.45;;;22.80;64.50;;;;;;4993083;28;20628;-69
2022/07/18 07:51:08;;;;;;;3.50;2.17;;;22.90;64.40;;;;;;4993222;28;20359;-70
2022/07/18 07:53:34;;;;;;;4.30;2.10;;;22.90;64.40;;;;;;4993001;28;20073;-70
2022/07/18 07:56:00;;;;;;;4.00;1.83;;;23.00;64.60;;;;;;4993015;28;20035;-70
2022/07/18 07:58:25;;;;;;;2.72;1.70;;;23.00;64.50;;;;;;4992780;28;20030;-70
2022/07/18 08:00:51;;;;;;;3.05;1.95;;;23.00;64.10;;;;;;4992874;28;20061;-70
2022/07/18 08:03:16;;;;;;;3.25;1.83;;;23.10;64.10;;;;;;4992897;28;20038;-70
2022/07/18 08:05:47;;;;;;;3.28;1.95;;;23.20;63.80;;;;;;4993240;28;20497;-70
2022/07/18 08:08:13;;;;;;;3.45;1.60;;;23.30;63.80;;;;;;4992941;28;20165;-70
2022/07/18 08:10:39;;;;;;;5.82;2.10;;;23.30;63.90;;;;;;4992362;28;20113;-69
2022/07/18 08:13:05;;;;;;;5.40;1.95;;;23.40;63.50;;;;;;4992787;28;20136;-70
2022/07/18 08:15:31;;;;;;;3.80;1.80;;;23.40;63.10;;;;;;4992792;28;20027;-70
2022/07/18 08:17:56;;;;;;;7.03;2.22;;;23.50;63.20;;;;;;4992322;28;20034;-69
2022/07/18 08:20:22;;;;;;;3.13;1.77;;;23.60;62.80;;;;;;4991571;28;20026;-70
2022/07/18 08:22:55;;;;;;;4.65;1.98;;;23.70;63.50;;;;;;4992384;28;20039;-70
2022/07/18 08:25:21;;;;;;;3.20;1.90;;;23.80;62.70;;;;;;4974983;28;20030;-69
2022/07/18 08:27:47;;;;;;;5.90;2.33;;;24.00;62.40;;;;;;4992338;28;20389;-68
2022/07/18 08:30:13;;;;;;;5.47;2.53;;;24.20;62.10;;;;;;4991958;28;20034;-70
2022/07/18 08:32:38;;;;;;;4.18;2.35;;;24.30;62.20;;;;;;4991157;28;20034;-70
2022/07/18 08:35:04;;;;;;;5.88;2.17;;;24.50;61.80;;;;;;4992543;28;20114;-69
2022/07/18 08:37:30;;;;;;;5.45;2.33;;;24.70;61.60;;;;;;4991054;28;20080;-69
2022/07/18 08:39:56;;;;;;;4.03;2.40;;;24.90;61.00;;;;;;4992432;28;20541;-70
2022/07/18 08:42:25;;;;;;;3.95;2.38;;;25.00;60.30;;;;;;4991625;28;20134;-70
2022/07/18 08:44:54;;;;;;;3.83;2.20;;;25.10;59.80;;;;;;4992478;28;20023;-69
2022/07/18 08:47:20;;;;;;;4.20;1.92;;;25.10;58.90;;;;;;4991322;28;20041;-69
2022/07/18 08:49:47;;;;;;;6.70;3.47;;;25.20;58.90;;;;;;4991188;28;20040;-69
2022/07/18 08:52:14;;;;;;;5.47;2.85;;;25.30;57.90;;;;;;4991949;28;20033;-69
2022/07/18 08:54:41;;;;;;;5.50;3.22;;;25.20;56.60;;;;;;4994174;28;20034;-70
2022/07/18 08:57:07;;;;;;;4.63;2.65;;;25.20;57.20;;;;;;4995674;28;20029;-69
2022/07/18 08:59:32;;;;;;;5.20;2.25;;;25.20;57.00;;;;;;4994402;28;20477;-70
2022/07/18 09:01:58;;;;;;;5.18;2.50;;;25.20;56.30;;;;;;4996207;28;20334;-70
2022/07/18 09:04:41;;;;;;;5.03;2.90;;;25.30;57.10;;;;;;4977552;28;20054;-70
2022/07/18 09:07:10;;;;;;;5.38;3.33;;;25.30;56.50;;;;;;4987300;28;20030;-68
2022/07/18 09:09:37;;;;;;;6.18;3.05;;;25.30;56.00;;;;;;4976645;28;20531;-69
2022/07/18 09:12:05;;;;;;;5.45;3.05;;;25.30;55.70;;;;;;4995438;28;20106;-69
2022/07/18 09:14:44;;;;;;;4.43;2.90;;;25.40;56.10;;;;;;4995579;28;20026;-69
2022/07/18 09:17:14;;;;;;;5.78;3.25;;;25.40;55.70;;;;;;4995900;28;20540;-69
2022/07/18 09:19:42;;;;;;;4.93;3.10;;;25.50;55.50;;;;;;4994819;28;20038;-69
2022/07/18 09:22:16;;;;;;;5.15;3.00;;;25.60;55.30;;;;;;4995859;28;20544;-69
2022/07/18 09:25:10;;;;;;;8.27;3.05;;;25.60;55.20;;;;;;4991758;28;20026;-69
2022/07/18 09:27:41;;;;;;;4.30;2.90;;;25.60;55.40;;;;;;4974805;28;20031;-69
2022/07/18 09:30:08;;;;;;;6.15;3.55;;;25.60;55.10;;;;;;4974984;28;20038;-69
2022/07/18 09:32:35;;;;;;;4.40;3.35;;;25.60;55.20;;;;;;4992716;28;20031;-70
2022/07/18 09:35:12;;;;;;;6.85;4.13;;;25.70;55.80;;;;;;4995044;28;20042;-70
2022/07/18 09:37:41;;;;;;;5.93;4.45;;;25.70;53.70;;;;;;4995298;28;20033;-69
2022/07/18 09:40:14;;;;;;;6.47;3.92;;;25.80;53.50;;;;;;4994582;28;20120;-69
2022/07/18 09:42:40;;;;;;;6.10;3.70;;;25.80;54.00;;;;;;4994369;28;20034;-69
2022/07/18 09:45:07;;;;;;;4.43;2.72;;;25.90;54.80;;;;;;4994874;28;20028;-69
2022/07/18 09:47:55;;;;;;;5.75;2.63;;;26.00;54.70;;;;;;4994642;28;20100;-69
2022/07/18 09:50:32;;;;;;;4.70;2.30;;;26.00;54.80;;;;;;4995354;28;20065;-69
2022/07/18 09:53:04;;;;;;;4.45;2.38;;;26.10;54.00;;;;;;4995430;28;20023;-69
2022/07/18 09:55:30;;;;;;;4.15;2.58;;;26.10;54.40;;;;;;4994472;28;20122;-69
2022/07/18 09:58:07;;;;;;;5.15;2.80;;;26.20;54.80;;;;;;4980182;28;20240;-69
2022/07/18 10:00:35;;;;;;;4.65;3.08;;;26.20;54.20;;;;;;4997374;28;20030;-69
2022/07/18 10:03:02;;;;;;;4.55;2.70;;;26.40;53.70;;;;;;4994853;28;20034;-69
2022/07/18 10:05:31;;;;;;;3.75;2.38;;;26.40;55.00;;;;;;4994297;28;20034;-69
2022/07/18 10:07:58;;;;;;;5.55;2.65;;;26.50;54.10;;;;;;4995284;28;20033;-69
2022/07/18 10:10:24;;;;;;;3.58;2.22;;;26.60;54.30;;;;;;4977832;28;20018;-68
2022/07/18 10:12:53;;;;;;;5.63;2.63;;;26.70;54.20;;;;;;4995105;28;20038;-69
2022/07/18 10:15:22;;;;;;;4.57;2.65;;;26.80;54.20;;;;;;4994092;28;20026;-70
2022/07/18 10:17:48;;;;;;;9.27;3.50;;;26.80;53.80;;;;;;4975990;28;20480;-70
2022/07/18 10:20:14;;;;;;;4.72;2.60;;;26.90;53.40;;;;;;4959023;28;20422;-70
2022/07/18 10:22:43;;;;;;;4.70;2.83;;;27.00;53.20;;;;;;4984315;28;20056;-70
2022/07/18 10:25:11;;;;;;;4.80;2.95;;;27.10;53.30;;;;;;4994779;28;20438;-70
2022/07/18 10:28:05;;;;;;;6.47;3.35;;;27.20;54.00;;;;;;4994442;28;20105;-70
2022/07/18 10:30:42;;;;;;;5.63;2.85;;;27.30;53.20;;;;;;4994569;28;20058;-70
2022/07/18 10:33:45;;;;;;;4.38;2.53;;;27.40;53.10;;;;;;4994284;28;20068;-70
2022/07/18 10:36:15;;;;;;;4.57;3.22;;;27.50;53.40;;;;;;4994571;28;20378;-70
2022/07/18 10:39:25;;;;;;;4.78;2.58;;;27.60;53.50;;;;;;4993387;28;20026;-70
2022/07/18 10:41:51;;;;;;;6.13;3.10;;;27.80;53.30;;;;;;4933741;29;20144;-70
2022/07/18 10:44:31;;;;;;;4.32;2.80;;;27.80;52.20;;;;;;4933909;29;20118;-70
2022/07/18 10:47:02;;;;;;;5.47;2.67;;;27.80;53.20;;;;;;4964178;28;20125;-70
2022/07/18 10:49:49;;;;;;;4.75;2.88;;;28.00;51.90;;;;;;4993226;28;20030;-70
2022/07/18 10:52:29;;;;;;;3.70;2.50;;;28.00;52.50;;;;;;4993326;28;20037;-69
2022/07/18 10:55:16;;;;;;;5.38;3.13;;;28.20;52.40;;;;;;4994240;28;20023;-69
2022/07/18 10:58:02;;;;;;;3.60;2.40;;;28.20;52.50;;;;;;4993916;28;20041;-68
2022/07/18 11:00:36;;;;;;;4.13;2.40;;;28.30;51.60;;;;;;4993633;28;20069;-69
2022/07/18 11:03:10;;;;;;;5.45;3.05;;;28.30;51.90;;;;;;4993340;28;20042;-69
2022/07/18 11:05:41;;;;;;;4.72;2.20;;;28.40;52.10;;;;;;4975417;28;20053;-68
2022/07/18 11:08:13;;;;;;;5.75;2.40;;;28.50;51.40;;;;;;4993099;28;20049;-69
2022/07/18 11:10:45;;;;;;;6.53;2.78;;;28.50;52.20;;;;;;4993689;28;20046;-69
2022/07/18 11:13:34;;;;;;;6.55;2.65;;;28.50;51.40;;;;;;4993855;28;20117;-69
2022/07/18 11:16:06;;;;;;;4.53;2.80;;;28.50;50.80;;;;;;4992946;28;20445;-69
2022/07/18 11:18:55;;;;;;;3.45;2.63;;;28.60;51.00;;;;;;4985457;28;20089;-69
2022/07/18 11:21:23;;;;;;;4.03;3.00;;;28.70;50.90;;;;;;4978492;28;20121;-68
2022/07/18 11:23:59;;;;;;;4.88;2.50;;;28.70;51.00;;;;;;4993034;28;20042;-69
2022/07/18 11:26:25;;;;;;;4.50;2.95;;;28.70;51.30;;;;;;4991461;28;20023;-69
2022/07/18 11:28:58;;;;;;;4.35;2.78;;;28.80;50.90;;;;;;4993532;28;20034;-69
2022/07/18 11:31:25;;;;;;;7.60;3.15;;;28.80;51.10;;;;;;4993689;28;20054;-69
2022/07/18 11:33:51;;;;;;;5.00;2.83;;;28.80;51.30;;;;;;4992732;28;20046;-69
2022/07/18 11:36:19;;;;;;;6.15;2.90;;;28.90;50.50;;;;;;4993764;28;20027;-69
2022/07/18 11:38:50;;;;;;;7.30;3.33;;;28.90;50.50;;;;;;4992858;28;20093;-69
2022/07/18 11:41:16;;;;;;;5.20;3.35;;;28.90;50.40;;;;;;4990429;28;20053;-68
2022/07/18 11:43:44;;;;;;;7.07;3.35;;;28.80;48.70;;;;;;4979114;28;20030;-70
2022/07/18 11:46:12;;;;;;;6.03;3.03;;;28.80;48.90;;;;;;4986930;28;20035;-69
2022/07/18 11:48:39;;;;;;;4.97;3.60;;;28.80;49.60;;;;;;4977035;28;20038;-70
2022/07/18 11:51:19;;;;;;;5.57;3.08;;;28.80;49.60;;;;;;4991058;28;20374;-69
2022/07/18 11:53:48;;;;;;;5.38;3.13;;;28.90;49.90;;;;;;4990555;28;20026;-69
2022/07/18 11:56:17;;;;;;;5.68;3.33;;;28.90;48.90;;;;;;4988898;28;20133;-69
2022/07/18 11:58:44;;;;;;;5.00;3.40;;;28.90;48.20;;;;;;4991315;28;20019;-69
2022/07/18 12:01:11;;;;;;;5.18;3.28;;;28.90;48.70;;;;;;4978174;28;20034;-68
2022/07/18 12:03:40;;;;;;;5.57;3.53;;;29.00;48.70;;;;;;4990634;28;20050;-68
2022/07/18 12:06:11;;;;;;;4.82;3.70;;;29.00;49.60;;;;;;4974940;28;20605;-69
2022/07/18 12:08:43;;;;;;;4.13;3.17;;;29.00;48.90;;;;;;4989067;28;20045;-69
2022/07/18 12:11:17;;;;;;;6.55;3.78;;;29.10;48.50;;;;;;4985391;28;20401;-70
2022/07/18 12:14:01;;;;;;;4.55;3.40;;;29.10;49.40;;;;;;4989499;28;20034;-69
2022/07/18 12:16:33;;;;;;;7.90;3.92;;;29.20;48.60;;;;;;4990923;28;20057;-68
2022/07/18 12:19:08;;;;;;;3.53;2.72;;;29.20;48.70;;;;;;4994053;28;20038;-68
2022/07/18 12:21:51;;;;;;;4.07;3.20;;;29.20;46.80;;;;;;4994202;28;20066;-69
2022/07/18 12:24:18;;;;;;;4.90;3.17;;;29.20;47.50;;;;;;4981446;28;20045;-68
2022/07/18 12:26:44;;;;;;;7.18;3.10;;;29.30;47.70;;;;;;4992321;28;20269;-68
2022/07/18 12:29:10;;;;;;;3.90;2.70;;;29.40;47.50;;;;;;4990715;28;20052;-68
2022/07/18 12:31:38;;;;;;;5.60;3.20;;;29.40;47.20;;;;;;4992312;28;20413;-68
2022/07/18 12:34:10;;;;;;;5.25;3.20;;;29.50;46.80;;;;;;4990464;28;20100;-67
2022/07/18 12:36:57;;;;;;;4.20;3.30;;;29.60;46.80;;;;;;4975950;28;20018;-68
2022/07/18 12:39:30;;;;;;;7.60;3.40;;;29.60;47.50;;;;;;4991077;28;20037;-68
2022/07/18 12:41:58;;;;;;;6.22;3.70;;;29.60;47.40;;;;;;4990704;28;20022;-68
2022/07/18 12:44:27;;;;;;;3.97;3.08;;;29.70;46.90;;;;;;4981373;28;20678;-68
2022/07/18 12:46:54;;;;;;;4.40;3.13;;;29.70;48.10;;;;;;4974406;28;20393;-67
2022/07/18 12:49:20;;;;;;;5.05;3.30;;;29.80;47.90;;;;;;4985701;28;20034;-67
2022/07/18 12:51:46;;;;;;;8.68;3.58;;;29.80;47.90;;;;;;4991006;28;20457;-68
2022/07/18 12:54:12;;;;;;;5.25;3.60;;;29.90;47.70;;;;;;4990884;28;20030;-68
2022/07/18 12:56:38;;;;;;;7.68;4.07;;;29.90;47.60;;;;;;4991449;28;20361;-68